Time,TemperatureF,DewpointF,PressureIn,WindDirection,WindDirectionDegrees,WindSpeedMPH,WindSpeedGustMPH,Humidity,HourlyPrecipIn,Conditions,Clouds,dailyrainin,SoftwareType,DateUTC
2013-03-29 00:09:00,41.9,30.0,30.07,WNW,298,1.0,2.0,64,0.00,,,0.00,weatherlink.com 1.10,2013-03-29 04:09:00,
2013-03-29 00:24:00,41.4,31.0,30.07,WNW,295,0.0,1.0,66,0.00,,,0.00,weatherlink.com 1.10,2013-03-29 04:24:00,
2013-03-29 00:40:00,40.7,30.0,30.07,WNW,295,0.0,2.0,67,0.00,,,0.00,weatherlink.com 1.10,2013-03-29 04:40:00,
2013-03-29 00:55:00,39.7,30.0,30.07,WNW,295,0.0,0.0,69,0.00,,,0.00,weatherlink.com 1.10,2013-03-29 04:55:00,
2013-03-29 01:10:00,38.7,30.0,30.08,WNW,295,0.0,1.0,72,0.00,,,0.00,weatherlink.com 1.10,2013-03-29 05:10:00,
2013-03-29 01:25:00,38.2,30.0,30.07,WNW,295,0.0,2.0,73,0.00,,,0.00,weatherlink.com 1.10,2013-03-29 05:25:00,
2013-03-29 01:40:00,38.3,30.0,30.08,WNW,287,1.0,2.0,73,0.00,,,0.00,weatherlink.com 1.10,2013-03-29 05:40:00,
2013-03-29 01:55:00,38.1,30.0,30.08,WNW,287,0.0,0.0,73,0.00,,,0.00,weatherlink.com 1.10,2013-03-29 05:55:00,
2013-03-29 02:10:00,37.3,30.0,30.08,WNW,287,0.0,0.0,75,0.00,,,0.00,weatherlink.com 1.10,2013-03-29 06:10:00,
2013-03-29 02:25:00,36.6,30.0,30.08,WNW,287,1.0,1.0,77,0.00,,,0.00,weatherlink.com 1.10,2013-03-29 06:25:00,
2013-03-29 02:40:00,37.1,31.0,30.08,West,271,0.0,4.0,77,0.00,,,0.00,weatherlink.com 1.10,2013-03-29 06:40:00,
2013-03-29 02:55:00,37.5,31.0,30.08,West,271,0.0,2.0,76,0.00,,,0.00,weatherlink.com 1.10,2013-03-29 06:55:00,
2013-03-29 03:10:00,38.0,30.0,30.07,WNW,296,1.0,6.0,74,0.00,,,0.00,weatherlink.com 1.10,2013-03-29 07:10:00,
2013-03-29 03:25:00,38.4,30.0,30.08,WNW,296,3.0,3.0,73,0.00,,,0.00,weatherlink.com 1.10,2013-03-29 07:25:00,
2013-03-29 03:40:00,38.2,30.0,30.07,WNW,296,0.0,3.0,73,0.00,,,0.00,weatherlink.com 1.10,2013-03-29 07:40:00,
2013-03-29 03:55:00,37.3,30.0,30.08,WNW,296,0.0,1.0,74,0.00,,,0.00,weatherlink.com 1.10,2013-03-29 07:55:00,
2013-03-29 04:10:00,36.4,30.0,30.08,WNW,296,0.0,0.0,76,0.00,,,0.00,weatherlink.com 1.10,2013-03-29 08:10:00,
2013-03-29 04:25:00,35.6,29.0,30.08,WNW,296,0.0,0.0,78,0.00,,,0.00,weatherlink.com 1.10,2013-03-29 08:25:00,
2013-03-29 04:40:00,35.0,29.0,30.08,WNW,296,0.0,0.0,78,0.00,,,0.00,weatherlink.com 1.10,2013-03-29 08:40:00,
2013-03-29 04:55:00,34.5,29.0,30.08,WNW,296,0.0,0.0,80,0.00,,,0.00,weatherlink.com 1.10,2013-03-29 08:55:00,
2013-03-29 05:10:00,34.1,29.0,30.08,WNW,296,0.0,1.0,80,0.00,,,0.00,weatherlink.com 1.10,2013-03-29 09:10:00,
2013-03-29 05:25:00,33.6,29.0,30.08,WNW,296,0.0,0.0,82,0.00,,,0.00,weatherlink.com 1.10,2013-03-29 09:25:00,
2013-03-29 05:40:00,33.2,28.0,30.08,WNW,296,0.0,0.0,82,0.00,,,0.00,weatherlink.com 1.10,2013-03-29 09:40:00,
2013-03-29 05:55:00,32.8,28.0,30.08,WNW,296,0.0,0.0,83,0.00,,,0.00,weatherlink.com 1.10,2013-03-29 09:55:00,
2013-03-29 06:10:00,32.6,28.0,30.08,WNW,296,0.0,0.0,84,0.00,,,0.00,weatherlink.com 1.10,2013-03-29 10:10:00,
2013-03-29 06:25:00,32.6,28.0,30.09,WNW,296,0.0,1.0,84,0.00,,,0.00,weatherlink.com 1.10,2013-03-29 10:25:00,
2013-03-29 06:40:00,32.6,28.0,30.09,WNW,296,0.0,0.0,84,0.00,,,0.00,weatherlink.com 1.10,2013-03-29 10:40:00,
2013-03-29 06:55:00,32.7,28.0,30.09,WNW,296,0.0,1.0,84,0.00,,,0.00,weatherlink.com 1.10,2013-03-29 10:55:00,
2013-03-29 07:10:00,33.0,28.0,30.10,WNW,296,0.0,0.0,83,0.00,,,0.00,weatherlink.com 1.10,2013-03-29 11:10:00,
2013-03-29 07:25:00,33.7,29.0,30.10,WNW,296,0.0,1.0,83,0.00,,,0.00,weatherlink.com 1.10,2013-03-29 11:25:00,
2013-03-29 07:40:00,35.3,30.0,30.10,NNW,338,0.0,3.0,82,0.00,,,0.00,weatherlink.com 1.10,2013-03-29 11:40:00,
2013-03-29 07:55:00,38.3,31.0,30.10,NNW,336,0.0,1.0,74,0.00,,,0.00,weatherlink.com 1.10,2013-03-29 11:55:00,
2013-03-29 08:10:00,40.6,31.0,30.10,West,270,1.0,3.0,69,0.00,,,0.00,weatherlink.com 1.10,2013-03-29 12:10:00,
2013-03-29 08:25:00,42.5,31.0,30.10,NNE,24,0.0,3.0,65,0.00,,,0.00,weatherlink.com 1.10,2013-03-29 12:25:00,
2013-03-29 08:40:00,44.2,31.0,30.10,NW,309,2.0,5.0,61,0.00,,,0.00,weatherlink.com 1.10,2013-03-29 12:40:00,
2013-03-29 08:56:00,44.9,31.0,30.10,WSW,245,2.0,8.0,58,0.00,,,0.00,weatherlink.com 1.10,2013-03-29 12:56:00,
2013-03-29 09:11:00,46.2,31.0,30.10,West,281,3.0,7.0,56,0.00,,,0.00,weatherlink.com 1.10,2013-03-29 13:11:00,
2013-03-29 09:26:00,47.7,31.0,30.10,North,10,8.0,9.0,53,0.00,,,0.00,weatherlink.com 1.10,2013-03-29 13:26:00,
2013-03-29 09:41:00,49.0,32.0,30.10,West,265,4.0,9.0,52,0.00,,,0.00,weatherlink.com 1.10,2013-03-29 13:41:00,
2013-03-29 10:26:00,50.7,30.0,30.09,NNE,29,1.0,8.0,46,0.00,,,0.00,weatherlink.com 1.10,2013-03-29 14:26:00,
2013-03-29 10:41:00,51.5,31.0,30.09,West,280,3.0,6.0,45,0.00,,,0.00,weatherlink.com 1.10,2013-03-29 14:41:00,
2013-03-29 10:56:00,52.8,31.0,30.09,West,276,2.0,8.0,44,0.00,,,0.00,weatherlink.com 1.10,2013-03-29 14:56:00,
2013-03-29 11:11:00,53.2,31.0,30.09,West,268,4.0,8.0,43,0.00,,,0.00,weatherlink.com 1.10,2013-03-29 15:11:00,
2013-03-29 11:26:00,53.9,31.0,30.09,WNW,296,1.0,7.0,42,0.00,,,0.00,weatherlink.com 1.10,2013-03-29 15:26:00,
2013-03-29 11:41:00,54.5,31.0,30.08,NW,317,7.0,9.0,41,0.00,,,0.00,weatherlink.com 1.10,2013-03-29 15:41:00,
2013-03-29 11:56:00,53.9,30.0,30.08,West,275,3.0,8.0,41,0.00,,,0.00,weatherlink.com 1.10,2013-03-29 15:56:00,
2013-03-29 12:11:00,55.1,30.0,30.07,WNW,286,2.0,8.0,38,0.00,,,0.00,weatherlink.com 1.10,2013-03-29 16:11:00,
2013-03-29 12:26:00,55.8,30.0,30.06,West,272,0.0,9.0,37,0.00,,,0.00,weatherlink.com 1.10,2013-03-29 16:26:00,
2013-03-29 12:41:00,54.2,28.0,30.06,WNW,290,6.0,11.0,37,0.00,,,0.00,weatherlink.com 1.10,2013-03-29 16:41:00,
2013-03-29 13:11:00,54.0,29.0,30.04,West,275,2.0,9.0,38,0.00,,,0.00,weatherlink.com 1.10,2013-03-29 17:11:00,
2013-03-29 13:26:00,54.8,29.0,30.04,West,260,6.0,8.0,38,0.00,,,0.00,weatherlink.com 1.10,2013-03-29 17:26:00,
2013-03-29 13:41:00,55.3,29.0,30.03,WNW,283,1.0,8.0,37,0.00,,,0.00,weatherlink.com 1.10,2013-03-29 17:41:00,
2013-03-29 13:56:00,55.5,29.0,30.02,West,277,1.0,6.0,37,0.00,,,0.00,weatherlink.com 1.10,2013-03-29 17:56:00,
2013-03-29 14:11:00,54.5,29.0,30.02,WNW,286,8.0,9.0,38,0.00,,,0.00,weatherlink.com 1.10,2013-03-29 18:11:00,
2013-03-29 14:26:00,53.6,28.0,30.02,WNW,303,2.0,7.0,38,0.00,,,0.00,weatherlink.com 1.10,2013-03-29 18:26:00,
2013-03-29 15:11:00,55.4,29.0,30.01,NNE,29,4.0,12.0,36,0.00,,,0.00,weatherlink.com 1.10,2013-03-29 19:11:00,
2013-03-29 15:27:00,54.7,28.0,30.01,NNW,347,3.0,10.0,36,0.00,,,0.00,weatherlink.com 1.10,2013-03-29 19:27:00,
2013-03-29 15:42:00,54.0,29.0,30.01,WNW,301,1.0,12.0,38,0.00,,,0.00,weatherlink.com 1.10,2013-03-29 19:42:00,
2013-03-29 15:57:00,53.5,30.0,30.01,NW,319,8.0,13.0,40,0.00,,,0.00,weatherlink.com 1.10,2013-03-29 19:57:00,
2013-03-29 16:12:00,53.0,30.0,30.01,WSW,258,3.0,13.0,41,0.00,,,0.00,weatherlink.com 1.10,2013-03-29 20:12:00,
2013-03-29 16:27:00,52.6,30.0,30.02,NNW,336,3.0,10.0,42,0.00,,,0.00,weatherlink.com 1.10,2013-03-29 20:27:00,
2013-03-29 16:42:00,52.1,31.0,30.02,WNW,288,0.0,10.0,44,0.00,,,0.00,weatherlink.com 1.10,2013-03-29 20:42:00,
2013-03-29 16:57:00,52.1,31.0,30.02,North,355,4.0,10.0,45,0.00,,,0.00,weatherlink.com 1.10,2013-03-29 20:57:00,
2013-03-29 17:12:00,52.2,31.0,30.03,West,259,4.0,11.0,44,0.00,,,0.00,weatherlink.com 1.10,2013-03-29 21:12:00,
2013-03-29 17:27:00,51.5,29.0,30.03,WSW,255,5.0,9.0,43,0.00,,,0.00,weatherlink.com 1.10,2013-03-29 21:27:00,
2013-03-29 17:42:00,50.9,30.0,30.03,West,279,2.0,9.0,45,0.00,,,0.00,weatherlink.com 1.10,2013-03-29 21:42:00,
2013-03-29 17:57:00,50.8,29.0,30.03,NW,305,1.0,9.0,44,0.00,,,0.00,weatherlink.com 1.10,2013-03-29 21:57:00,
2013-03-29 18:12:00,50.5,29.0,30.04,NNW,338,8.0,12.0,44,0.00,,,0.00,weatherlink.com 1.10,2013-03-29 22:12:00,
2013-03-29 18:27:00,50.3,30.0,30.04,North,9,2.0,8.0,45,0.00,,,0.00,weatherlink.com 1.10,2013-03-29 22:27:00,
2013-03-29 18:42:00,50.1,29.0,30.04,NW,307,2.0,7.0,44,0.00,,,0.00,weatherlink.com 1.10,2013-03-29 22:42:00,
2013-03-29 18:57:00,49.9,29.0,30.04,West,280,3.0,8.0,45,0.00,,,0.00,weatherlink.com 1.10,2013-03-29 22:57:00,
2013-03-29 19:12:00,49.5,29.0,30.04,NW,326,1.0,7.0,45,0.00,,,0.00,weatherlink.com 1.10,2013-03-29 23:12:00,
2013-03-29 19:27:00,48.8,29.0,30.05,North,349,2.0,4.0,46,0.00,,,0.00,weatherlink.com 1.10,2013-03-29 23:27:00,
2013-03-29 19:42:00,48.1,29.0,30.05,NNW,333,2.0,5.0,47,0.00,,,0.00,weatherlink.com 1.10,2013-03-29 23:42:00,
2013-03-29 19:57:00,47.6,29.0,30.05,NNW,332,2.0,4.0,48,0.00,,,0.00,weatherlink.com 1.10,2013-03-29 23:57:00,
2013-03-29 20:12:00,47.0,29.0,30.06,West,271,0.0,4.0,50,0.00,,,0.00,weatherlink.com 1.10,2013-03-30 00:12:00,
2013-03-29 20:27:00,46.2,29.0,30.06,West,271,0.0,3.0,52,0.00,,,0.00,weatherlink.com 1.10,2013-03-30 00:27:00,
2013-03-29 20:42:00,45.1,29.0,30.07,West,271,0.0,0.0,54,0.00,,,0.00,weatherlink.com 1.10,2013-03-30 00:42:00,
2013-03-29 20:57:00,44.0,29.0,30.07,West,271,0.0,0.0,57,0.00,,,0.00,weatherlink.com 1.10,2013-03-30 00:57:00,
2013-03-29 21:12:00,42.8,29.0,30.07,West,271,0.0,0.0,59,0.00,,,0.00,weatherlink.com 1.10,2013-03-30 01:12:00,
2013-03-29 21:27:00,42.0,29.0,30.07,West,271,0.0,0.0,61,0.00,,,0.00,weatherlink.com 1.10,2013-03-30 01:27:00,
2013-03-29 21:42:00,41.0,29.0,30.08,West,271,0.0,0.0,63,0.00,,,0.00,weatherlink.com 1.10,2013-03-30 01:42:00,
2013-03-29 21:57:00,40.2,29.0,30.08,West,271,0.0,0.0,65,0.00,,,0.00,weatherlink.com 1.10,2013-03-30 01:57:00,
2013-03-29 22:12:00,39.6,29.0,30.09,West,271,0.0,0.0,66,0.00,,,0.00,weatherlink.com 1.10,2013-03-30 02:12:00,
2013-03-29 22:27:00,39.1,29.0,30.09,West,271,0.0,0.0,67,0.00,,,0.00,weatherlink.com 1.10,2013-03-30 02:27:00,
2013-03-29 22:42:00,38.7,29.0,30.09,West,271,0.0,0.0,68,0.00,,,0.00,weatherlink.com 1.10,2013-03-30 02:42:00,
2013-03-29 22:57:00,38.3,29.0,30.09,West,271,0.0,0.0,69,0.00,,,0.00,weatherlink.com 1.10,2013-03-30 02:57:00,
2013-03-29 23:12:00,38.1,29.0,30.09,West,271,0.0,0.0,69,0.00,,,0.00,weatherlink.com 1.10,2013-03-30 03:12:00,
2013-03-29 23:27:00,37.7,29.0,30.09,West,271,0.0,2.0,72,0.00,,,0.00,weatherlink.com 1.10,2013-03-30 03:27:00,
2013-03-29 23:42:00,37.4,29.0,30.09,West,271,0.0,0.0,73,0.00,,,0.00,weatherlink.com 1.10,2013-03-30 03:42:00,
2013-03-29 23:57:00,36.6,29.0,30.09,West,271,0.0,0.0,74,0.00,,,0.00,weatherlink.com 1.10,2013-03-30 03:57:00,